createdAt,value
2018-12-09T00:00:52.055Z,985.88
2018-12-09T00:01:52.648Z,985.77
2018-12-09T00:02:54.098Z,985.84
2018-12-09T00:03:53.824Z,985.84
2018-12-09T00:04:54.421Z,985.78
2018-12-09T00:05:55.008Z,985.88
2018-12-09T00:06:55.604Z,985.80
2018-12-09T00:07:56.208Z,986.01
2018-12-09T00:08:56.796Z,985.68
2018-12-09T00:09:57.392Z,985.78
2018-12-09T00:10:57.980Z,985.76
2018-12-09T00:11:58.576Z,985.85
2018-12-09T00:12:59.177Z,985.78
2018-12-09T00:13:59.773Z,985.76
2018-12-09T00:15:00.372Z,985.72
2018-12-09T00:16:00.958Z,985.80
2018-12-09T00:17:01.544Z,985.88
2018-12-09T00:18:02.139Z,985.92
2018-12-09T00:19:02.731Z,985.71
2018-12-09T00:20:03.319Z,985.90
2018-12-09T00:21:03.917Z,985.82
2018-12-09T00:22:04.503Z,985.70
2018-12-09T00:23:05.092Z,985.73
2018-12-09T00:24:05.686Z,985.86
2018-12-09T00:25:06.274Z,985.83
2018-12-09T00:26:06.869Z,985.74
2018-12-09T00:27:07.462Z,985.70
2018-12-09T00:28:08.060Z,985.87
2018-12-09T00:29:08.654Z,985.83
2018-12-09T00:30:09.252Z,985.88
2018-12-09T00:31:09.838Z,985.86
2018-12-09T00:32:10.432Z,985.80
2018-12-09T00:33:11.024Z,985.80
2018-12-09T00:34:11.615Z,985.89
2018-12-09T00:35:12.201Z,985.99
2018-12-09T00:36:12.804Z,985.86
2018-12-09T00:37:13.398Z,985.85
2018-12-09T00:38:13.995Z,985.90
2018-12-09T00:39:14.586Z,985.80
2018-12-09T00:40:15.183Z,985.85
2018-12-09T00:41:15.771Z,985.90
2018-12-09T00:42:16.360Z,985.91
2018-12-09T00:43:16.951Z,985.98
2018-12-09T00:44:17.547Z,985.87
2018-12-09T00:45:18.141Z,985.82
2018-12-09T00:46:18.741Z,985.89
2018-12-09T00:47:19.324Z,985.95
2018-12-09T00:48:19.913Z,985.70
2018-12-09T00:49:20.508Z,985.95
2018-12-09T00:50:21.106Z,985.89
2018-12-09T00:51:21.702Z,985.80
2018-12-09T00:52:22.400Z,985.72
2018-12-09T00:53:22.883Z,985.89
2018-12-09T00:54:23.481Z,985.92
2018-12-09T00:55:24.074Z,985.89
2018-12-09T00:56:24.706Z,985.84
2018-12-09T00:57:25.255Z,985.83
2018-12-09T00:58:25.854Z,985.84
2018-12-09T00:59:26.441Z,985.92
2018-12-09T01:00:27.030Z,985.89
2018-12-09T01:01:27.642Z,985.98
2018-12-09T01:02:28.244Z,985.89
2018-12-09T01:03:28.826Z,985.96
2018-12-09T01:04:29.425Z,985.80
2018-12-09T01:05:30.020Z,985.99
2018-12-09T01:06:30.609Z,986.04
2018-12-09T01:07:31.202Z,986.12
2018-12-09T01:08:31.792Z,985.98
2018-12-09T01:09:32.387Z,985.74
2018-12-09T01:10:32.981Z,985.97
2018-12-09T01:11:33.570Z,985.96
2018-12-09T01:12:34.167Z,985.88
2018-12-09T01:13:34.764Z,986.07
2018-12-09T01:14:35.359Z,986.08
2018-12-09T01:15:35.956Z,986.07
2018-12-09T01:16:36.553Z,986.04
2018-12-09T01:17:37.148Z,985.84
2018-12-09T01:18:37.737Z,985.93
2018-12-09T01:19:38.331Z,986.15
2018-12-09T01:20:38.929Z,985.96
2018-12-09T01:21:39.528Z,986.06
2018-12-09T01:22:40.120Z,986.14
2018-12-09T01:23:40.716Z,986.16
2018-12-09T01:24:41.312Z,986.10
2018-12-09T01:25:41.909Z,986.08
2018-12-09T01:26:42.497Z,986.05
2018-12-09T01:27:43.091Z,986.04
2018-12-09T01:28:43.680Z,986.16
2018-12-09T01:29:44.282Z,986.20
2018-12-09T01:30:44.900Z,986.21
2018-12-09T01:31:45.473Z,986.16
2018-12-09T01:32:46.068Z,986.22
2018-12-09T01:33:46.657Z,986.18
2018-12-09T01:34:47.256Z,986.09
2018-12-09T01:35:47.847Z,986.07
2018-12-09T01:36:48.433Z,986.29
2018-12-09T01:37:49.033Z,986.17
2018-12-09T01:38:49.638Z,986.21
2018-12-09T01:39:50.215Z,986.18
2018-12-09T01:40:50.815Z,986.24
2018-12-09T01:41:51.418Z,986.25
2018-12-09T01:42:51.996Z,986.17
2018-12-09T01:43:52.618Z,986.15
2018-12-09T01:44:53.215Z,986.20
2018-12-09T01:45:53.786Z,986.23
2018-12-09T01:46:54.385Z,986.27
2018-12-09T01:47:54.978Z,986.32
2018-12-09T01:48:55.573Z,986.26
2018-12-09T01:49:56.169Z,986.35
2018-12-09T01:50:56.763Z,986.28
2018-12-09T01:51:57.355Z,986.30
2018-12-09T01:52:57.951Z,986.36
2018-12-09T01:53:58.539Z,986.29
2018-12-09T01:54:59.136Z,986.31
2018-12-09T01:55:59.729Z,986.05
2018-12-09T01:57:00.321Z,986.38
2018-12-09T01:58:00.915Z,986.25
2018-12-09T01:59:01.516Z,986.15
2018-12-09T02:00:02.119Z,986.35
2018-12-09T02:01:02.707Z,986.24
2018-12-09T02:02:03.302Z,986.33
2018-12-09T02:03:03.905Z,986.35
2018-12-09T02:04:04.499Z,986.36
2018-12-09T02:05:05.092Z,986.32
2018-12-09T02:06:05.683Z,986.18
2018-12-09T02:07:06.280Z,986.41
2018-12-09T02:08:06.869Z,986.35
2018-12-09T02:09:07.463Z,986.43
2018-12-09T02:10:08.057Z,986.53
2018-12-09T02:11:08.648Z,986.57
2018-12-09T02:12:09.244Z,986.46
2018-12-09T02:13:09.844Z,986.45
2018-12-09T02:14:10.426Z,986.40
2018-12-09T02:15:11.018Z,986.49
2018-12-09T02:16:11.607Z,986.46
2018-12-09T02:17:12.203Z,986.46
2018-12-09T02:18:12.790Z,986.54
2018-12-09T02:19:13.388Z,986.48
2018-12-09T02:20:13.982Z,986.49
2018-12-09T02:21:14.567Z,986.35
2018-12-09T02:22:15.154Z,986.53
2018-12-09T02:23:15.743Z,986.57
2018-12-09T02:24:16.340Z,986.52
2018-12-09T02:25:16.933Z,986.51
2018-12-09T02:26:17.530Z,986.38
2018-12-09T02:27:18.122Z,986.51
2018-12-09T02:28:18.723Z,986.37
2018-12-09T02:29:19.317Z,986.37
2018-12-09T02:30:19.915Z,986.54
2018-12-09T02:31:20.509Z,986.38
2018-12-09T02:32:21.103Z,986.56
2018-12-09T02:33:21.701Z,986.61
2018-12-09T02:34:22.299Z,986.38
2018-12-09T02:35:22.891Z,986.52
2018-12-09T02:36:23.480Z,986.62
2018-12-09T02:37:24.084Z,986.60
2018-12-09T02:38:24.662Z,986.63
2018-12-09T02:39:25.263Z,986.68
2018-12-09T02:40:25.855Z,986.53
2018-12-09T02:41:26.449Z,986.60
2018-12-09T02:42:27.039Z,986.67
2018-12-09T02:43:27.639Z,986.59
2018-12-09T02:44:28.279Z,986.55
2018-12-09T02:45:28.813Z,986.57
2018-12-09T02:46:29.405Z,986.60
2018-12-09T02:47:30.001Z,986.55
2018-12-09T02:48:30.671Z,986.53
2018-12-09T02:49:31.253Z,986.57
2018-12-09T02:50:31.854Z,986.49
2018-12-09T02:51:32.443Z,986.57
2018-12-09T02:52:33.148Z,986.69
2018-12-09T02:53:33.635Z,986.70
2018-12-09T02:54:34.229Z,986.69
2018-12-09T02:55:34.826Z,986.66
2018-12-09T02:56:35.421Z,986.75
2018-12-09T02:57:36.005Z,986.81
2018-12-09T02:58:36.602Z,986.81
2018-12-09T02:59:37.192Z,986.86
2018-12-09T03:00:37.788Z,986.89
2018-12-09T03:01:38.385Z,986.84
2018-12-09T03:02:38.972Z,986.84
2018-12-09T03:03:39.566Z,986.84
2018-12-09T03:04:40.167Z,986.80
2018-12-09T03:05:40.759Z,986.78
2018-12-09T03:06:41.346Z,986.64
2018-12-09T03:07:41.939Z,986.62
2018-12-09T03:08:42.526Z,986.69
2018-12-09T03:09:43.122Z,986.70
2018-12-09T03:10:43.717Z,986.66
2018-12-09T03:11:44.311Z,986.58
2018-12-09T03:12:44.909Z,986.63
2018-12-09T03:13:45.496Z,986.53
2018-12-09T03:14:46.090Z,986.58
2018-12-09T03:15:46.682Z,986.62
2018-12-09T03:16:47.275Z,986.53
2018-12-09T03:17:47.868Z,986.58
2018-12-09T03:18:48.467Z,986.55
2018-12-09T03:19:49.052Z,986.55
2018-12-09T03:20:49.648Z,986.58
2018-12-09T03:21:50.240Z,986.55
2018-12-09T03:22:50.829Z,986.59
2018-12-09T03:23:51.418Z,986.55
2018-12-09T03:24:52.013Z,986.50
2018-12-09T03:25:52.601Z,986.63
2018-12-09T03:26:55.047Z,986.56
2018-12-09T03:27:53.782Z,986.62
2018-12-09T03:28:54.367Z,986.55
2018-12-09T03:29:54.955Z,986.34
2018-12-09T03:30:55.552Z,986.48
2018-12-09T03:31:56.453Z,986.43
2018-12-09T03:32:57.043Z,986.52
2018-12-09T03:33:57.636Z,986.52
2018-12-09T03:34:58.233Z,986.45
2018-12-09T03:35:58.831Z,986.43
2018-12-09T03:36:59.417Z,986.39
2018-12-09T03:38:00.013Z,986.34
2018-12-09T03:39:00.603Z,986.32
2018-12-09T03:40:01.190Z,986.27
2018-12-09T03:41:01.786Z,986.27
2018-12-09T03:42:02.571Z,986.23
2018-12-09T03:43:03.160Z,986.03
2018-12-09T03:44:03.756Z,986.02
2018-12-09T03:45:04.349Z,985.86
2018-12-09T03:46:04.951Z,985.82
2018-12-09T03:47:05.544Z,986.00
2018-12-09T03:48:06.141Z,986.10
2018-12-09T03:49:06.736Z,986.42
2018-12-09T03:50:07.327Z,986.72
2018-12-09T03:51:07.913Z,986.89
2018-12-09T03:52:08.498Z,986.76
2018-12-09T03:53:09.092Z,986.71
2018-12-09T03:54:09.687Z,986.68
2018-12-09T03:55:10.283Z,986.64
2018-12-09T03:56:10.888Z,986.60
2018-12-09T03:57:11.480Z,986.62
2018-12-09T03:58:12.075Z,986.61
2018-12-09T03:59:12.661Z,986.72
2018-12-09T04:00:13.257Z,986.70
2018-12-09T04:01:13.845Z,986.62
2018-12-09T04:02:14.442Z,986.57
2018-12-09T04:03:15.244Z,986.60
2018-12-09T04:04:15.815Z,986.49
2018-12-09T04:05:16.406Z,986.57
2018-12-09T04:06:17.002Z,986.53
2018-12-09T04:07:17.587Z,986.46
2018-12-09T04:08:18.182Z,986.50
2018-12-09T04:09:18.800Z,986.42
2018-12-09T04:10:19.355Z,986.60
2018-12-09T04:11:19.949Z,986.52
2018-12-09T04:12:20.542Z,986.49
2018-12-09T04:13:21.129Z,986.62
2018-12-09T04:14:21.727Z,986.68
2018-12-09T04:15:22.313Z,986.59
2018-12-09T04:16:22.906Z,986.61
2018-12-09T04:17:23.502Z,986.66
2018-12-09T04:18:24.100Z,986.70
2018-12-09T04:19:24.696Z,986.52
2018-12-09T04:20:25.279Z,986.73
2018-12-09T04:21:25.867Z,986.54
2018-12-09T04:22:26.462Z,986.69
2018-12-09T04:23:27.053Z,986.70
2018-12-09T04:24:27.651Z,986.54
2018-12-09T04:25:28.245Z,986.63
2018-12-09T04:26:28.834Z,986.74
2018-12-09T04:27:29.423Z,986.68
2018-12-09T04:28:30.016Z,986.64
2018-12-09T04:29:30.612Z,986.56
2018-12-09T04:30:31.200Z,986.75
2018-12-09T04:31:31.815Z,986.62
2018-12-09T04:32:32.383Z,986.77
2018-12-09T04:33:32.977Z,986.40
2018-12-09T04:34:33.576Z,986.75
2018-12-09T04:35:34.159Z,986.68
2018-12-09T04:36:34.755Z,986.72
2018-12-09T04:37:35.349Z,986.76
2018-12-09T04:38:35.951Z,986.74
2018-12-09T04:39:36.545Z,986.84
2018-12-09T04:40:37.131Z,986.76
2018-12-09T04:41:37.719Z,986.80
2018-12-09T04:42:38.458Z,986.84
2018-12-09T04:43:38.913Z,986.93
2018-12-09T04:44:39.495Z,986.73
2018-12-09T04:45:40.090Z,986.81
2018-12-09T04:46:40.677Z,986.84
2018-12-09T04:47:41.275Z,986.66
2018-12-09T04:48:41.871Z,986.84
2018-12-09T04:49:42.468Z,986.82
2018-12-09T04:50:43.063Z,986.88
2018-12-09T04:51:43.664Z,986.68
2018-12-09T04:52:44.248Z,986.87
2018-12-09T04:53:44.844Z,986.97
2018-12-09T04:54:45.441Z,987.00
2018-12-09T04:55:46.048Z,987.01
2018-12-09T04:56:46.631Z,986.91
2018-12-09T04:57:47.229Z,986.99
2018-12-09T04:58:47.812Z,986.99
2018-12-09T04:59:48.400Z,987.06
2018-12-09T05:00:48.996Z,986.97
2018-12-09T05:01:49.593Z,987.14
2018-12-09T05:02:50.187Z,987.18
2018-12-09T05:03:50.775Z,987.18
2018-12-09T05:04:51.361Z,987.16
2018-12-09T05:05:51.952Z,987.29
2018-12-09T05:06:52.545Z,987.37
2018-12-09T05:07:53.141Z,987.23
2018-12-09T05:08:53.735Z,987.48
2018-12-09T05:09:54.330Z,987.49
2018-12-09T05:10:54.922Z,987.45
2018-12-09T05:11:55.513Z,987.46
2018-12-09T05:12:57.360Z,987.51
2018-12-09T05:13:56.700Z,987.35
2018-12-09T05:14:57.287Z,987.48
2018-12-09T05:15:57.877Z,987.51
2018-12-09T05:16:58.477Z,987.37
2018-12-09T05:17:59.065Z,987.41
2018-12-09T05:18:59.654Z,987.33
2018-12-09T05:20:00.249Z,987.40
2018-12-09T05:21:00.843Z,987.41
2018-12-09T05:22:01.442Z,987.39
2018-12-09T05:23:02.035Z,987.35
2018-12-09T05:24:02.631Z,987.37
2018-12-09T05:25:03.227Z,987.31
2018-12-09T05:26:03.819Z,987.27
2018-12-09T05:27:04.414Z,987.34
2018-12-09T05:28:05.006Z,987.26
2018-12-09T05:29:05.594Z,987.29
2018-12-09T05:30:06.182Z,987.31
2018-12-09T05:31:06.777Z,987.33
2018-12-09T05:32:07.408Z,987.22
2018-12-09T05:33:07.969Z,987.29
2018-12-09T05:34:08.559Z,987.27
2018-12-09T05:35:09.148Z,987.37
2018-12-09T05:36:09.735Z,987.37
2018-12-09T05:37:10.322Z,987.38
2018-12-09T05:38:10.917Z,987.37
2018-12-09T05:39:11.514Z,987.38
2018-12-09T05:40:12.148Z,987.44
2018-12-09T05:41:12.704Z,987.37
2018-12-09T05:42:13.291Z,987.38
2018-12-09T05:43:13.886Z,987.39
2018-12-09T05:44:14.486Z,987.43
2018-12-09T05:45:15.078Z,987.53
2018-12-09T05:46:15.671Z,987.41
2018-12-09T05:47:16.264Z,987.44
2018-12-09T05:48:16.858Z,987.46
2018-12-09T05:49:17.446Z,987.59
2018-12-09T05:50:18.041Z,987.54
2018-12-09T05:51:18.637Z,987.67
2018-12-09T05:52:19.328Z,987.36
2018-12-09T05:53:19.814Z,987.64
2018-12-09T05:54:20.409Z,987.62
2018-12-09T05:55:21.008Z,987.73
2018-12-09T05:56:21.605Z,987.65
2018-12-09T05:57:22.204Z,987.68
2018-12-09T05:58:22.799Z,987.72
2018-12-09T05:59:23.398Z,987.74
2018-12-09T06:00:23.988Z,987.83
2018-12-09T06:01:24.575Z,987.69
2018-12-09T06:02:25.171Z,987.89
2018-12-09T06:03:25.769Z,987.89
2018-12-09T06:04:26.364Z,987.80
2018-12-09T06:05:26.957Z,987.80
2018-12-09T06:06:27.553Z,987.85
2018-12-09T06:07:28.426Z,987.92
2018-12-09T06:08:29.033Z,987.89
2018-12-09T06:09:29.628Z,987.76
2018-12-09T06:10:30.248Z,987.96
2018-12-09T06:11:30.836Z,987.87
2018-12-09T06:12:31.413Z,987.88
2018-12-09T06:13:32.012Z,987.93
2018-12-09T06:14:32.606Z,987.96
2018-12-09T06:15:33.199Z,987.88
2018-12-09T06:16:33.785Z,987.89
2018-12-09T06:17:34.373Z,987.93
2018-12-09T06:18:34.969Z,987.98
2018-12-09T06:19:35.558Z,987.97
2018-12-09T06:20:36.152Z,987.89
2018-12-09T06:21:36.748Z,988.00
2018-12-09T06:22:37.344Z,987.95
2018-12-09T06:23:37.932Z,987.83
2018-12-09T06:24:38.531Z,987.98
2018-12-09T06:25:39.114Z,988.01
2018-12-09T06:26:39.713Z,987.98
2018-12-09T06:27:40.550Z,987.92
2018-12-09T06:28:41.142Z,987.99
2018-12-09T06:29:41.740Z,988.05
2018-12-09T06:30:42.333Z,988.02
2018-12-09T06:31:42.928Z,988.09
2018-12-09T06:32:43.516Z,988.11
2018-12-09T06:33:44.109Z,988.07
2018-12-09T06:34:44.706Z,988.09
2018-12-09T06:35:45.302Z,988.07
2018-12-09T06:36:45.900Z,988.02
2018-12-09T06:37:46.685Z,988.08
2018-12-09T06:38:47.279Z,988.09
2018-12-09T06:39:47.877Z,987.90
2018-12-09T06:40:48.474Z,988.10
2018-12-09T06:41:49.067Z,988.15
2018-12-09T06:42:49.668Z,988.08
2018-12-09T06:43:50.263Z,988.24
2018-12-09T06:44:50.849Z,988.23
2018-12-09T06:45:51.448Z,988.10
2018-12-09T06:46:52.044Z,988.18
2018-12-09T06:47:52.636Z,988.16
2018-12-09T06:48:53.230Z,988.19
2018-12-09T06:49:53.824Z,988.11
2018-12-09T06:50:54.422Z,988.21
2018-12-09T06:51:55.015Z,988.27
2018-12-09T06:52:55.601Z,988.27
2018-12-09T06:53:56.196Z,988.27
2018-12-09T06:54:56.798Z,988.33
2018-12-09T06:55:57.387Z,988.17
2018-12-09T06:56:57.988Z,988.21
2018-12-09T06:57:58.749Z,988.35
2018-12-09T06:58:59.345Z,988.35
2018-12-09T06:59:59.949Z,987.95
2018-12-09T07:01:00.536Z,988.32
2018-12-09T07:02:01.123Z,988.30
2018-12-09T07:03:01.710Z,988.34
2018-12-09T07:04:02.308Z,988.27
2018-12-09T07:05:02.903Z,988.32
2018-12-09T07:06:03.499Z,988.28
2018-12-09T07:07:04.097Z,988.20
2018-12-09T07:08:04.705Z,988.38
2018-12-09T07:09:05.292Z,988.39
2018-12-09T07:10:05.888Z,988.41
2018-12-09T07:11:06.477Z,988.39
2018-12-09T07:12:07.071Z,988.53
2018-12-09T07:13:07.662Z,988.42
2018-12-09T07:14:08.326Z,988.44
2018-12-09T07:15:08.836Z,988.55
2018-12-09T07:16:09.459Z,988.52
2018-12-09T07:17:10.048Z,988.56
2018-12-09T07:18:10.650Z,988.54
2018-12-09T07:19:11.245Z,988.53
2018-12-09T07:20:11.858Z,988.67
2018-12-09T07:21:12.445Z,988.60
2018-12-09T07:22:13.039Z,988.63
2018-12-09T07:23:13.634Z,988.69
2018-12-09T07:24:14.229Z,988.48
2018-12-09T07:25:14.828Z,988.66
2018-12-09T07:26:15.424Z,988.66
2018-12-09T07:27:16.205Z,988.63
2018-12-09T07:28:16.802Z,988.64
2018-12-09T07:29:17.410Z,988.75
2018-12-09T07:30:17.994Z,988.58
2018-12-09T07:31:18.592Z,988.68
2018-12-09T07:32:19.212Z,988.65
2018-12-09T07:33:19.782Z,988.71
2018-12-09T07:34:20.382Z,988.66
2018-12-09T07:35:20.984Z,988.74
2018-12-09T07:36:21.584Z,988.77
2018-12-09T07:37:22.179Z,988.77
2018-12-09T07:38:22.781Z,988.75
2018-12-09T07:39:23.392Z,988.75
2018-12-09T07:40:23.979Z,988.82
2018-12-09T07:41:24.571Z,988.87
2018-12-09T07:42:25.177Z,988.77
2018-12-09T07:43:25.773Z,988.87
2018-12-09T07:44:26.375Z,988.97
2018-12-09T07:45:26.969Z,988.90
2018-12-09T07:46:27.559Z,988.88
2018-12-09T07:47:28.154Z,988.88
2018-12-09T07:48:28.765Z,989.00
2018-12-09T07:49:29.343Z,988.99
2018-12-09T07:50:29.944Z,988.99
2018-12-09T07:51:30.542Z,989.10
2018-12-09T07:52:31.148Z,989.00
2018-12-09T07:53:31.740Z,989.00
2018-12-09T07:54:32.341Z,988.96
2018-12-09T07:55:32.946Z,989.14
2018-12-09T07:56:33.545Z,989.08
2018-12-09T07:57:34.149Z,989.04
2018-12-09T07:58:34.749Z,989.14
2018-12-09T07:59:35.349Z,989.16
2018-12-09T08:00:35.950Z,989.13
2018-12-09T08:01:36.549Z,989.14
2018-12-09T08:02:37.146Z,989.16
2018-12-09T08:03:37.749Z,989.10
2018-12-09T08:04:38.349Z,989.14
2018-12-09T08:05:38.951Z,989.26
2018-12-09T08:06:39.551Z,989.10
2018-12-09T08:07:40.151Z,989.31
2018-12-09T08:08:40.746Z,989.19
2018-12-09T08:09:41.345Z,989.31
2018-12-09T08:10:41.935Z,989.22
2018-12-09T08:11:42.539Z,989.31
2018-12-09T08:12:43.153Z,989.23
2018-12-09T08:13:43.741Z,989.30
2018-12-09T08:14:44.346Z,989.32
2018-12-09T08:15:44.947Z,989.42
2018-12-09T08:16:45.546Z,989.27
2018-12-09T08:17:46.140Z,989.36
2018-12-09T08:18:46.738Z,989.40
2018-12-09T08:19:47.334Z,989.38
2018-12-09T08:20:47.934Z,989.23
2018-12-09T08:21:48.532Z,989.35
2018-12-09T08:22:49.133Z,989.40
2018-12-09T08:23:49.724Z,989.43
2018-12-09T08:24:50.325Z,989.45
2018-12-09T08:25:50.926Z,989.32
2018-12-09T08:26:51.525Z,989.50
2018-12-09T08:27:52.123Z,989.47
2018-12-09T08:28:52.718Z,989.55
2018-12-09T08:29:53.321Z,989.55
2018-12-09T08:30:53.921Z,989.40
2018-12-09T08:31:54.522Z,989.49
2018-12-09T08:32:55.125Z,989.60
2018-12-09T08:33:55.727Z,989.65
2018-12-09T08:34:56.319Z,989.68
2018-12-09T08:35:56.911Z,989.78
2018-12-09T08:36:57.504Z,989.72
2018-12-09T08:37:58.101Z,989.78
2018-12-09T08:38:58.697Z,989.76
2018-12-09T08:39:59.288Z,989.77
2018-12-09T08:40:59.879Z,989.63
2018-12-09T08:42:00.479Z,989.64
2018-12-09T08:43:01.078Z,989.66
2018-12-09T08:44:01.682Z,989.65
2018-12-09T08:45:02.279Z,989.64
2018-12-09T08:46:02.878Z,989.56
2018-12-09T08:47:03.488Z,989.66
2018-12-09T08:48:04.081Z,989.73
2018-12-09T08:49:04.683Z,989.68
2018-12-09T08:50:05.284Z,989.68
2018-12-09T08:51:05.876Z,989.67
2018-12-09T08:52:06.465Z,989.68
2018-12-09T08:53:07.060Z,989.61
2018-12-09T08:54:07.664Z,989.74
2018-12-09T08:55:08.258Z,989.75
2018-12-09T08:56:08.861Z,989.75
2018-12-09T08:57:09.460Z,989.79
2018-12-09T08:58:10.058Z,989.79
2018-12-09T08:59:10.654Z,989.81
2018-12-09T09:00:11.257Z,989.81
2018-12-09T09:01:11.858Z,989.86
2018-12-09T09:02:12.462Z,989.78
2018-12-09T09:03:13.055Z,989.82
2018-12-09T09:04:13.657Z,989.73
2018-12-09T09:05:14.259Z,989.77
2018-12-09T09:06:14.860Z,989.79
2018-12-09T09:07:15.465Z,989.76
2018-12-09T09:08:16.066Z,989.80
2018-12-09T09:09:16.667Z,989.76
2018-12-09T09:10:17.263Z,989.78
2018-12-09T09:11:17.860Z,989.69
2018-12-09T09:12:18.461Z,989.75
2018-12-09T09:13:19.062Z,989.80
2018-12-09T09:14:19.665Z,989.77
2018-12-09T09:15:20.266Z,989.82
2018-12-09T09:16:20.865Z,989.85
2018-12-09T09:17:21.470Z,989.62
2018-12-09T09:18:22.072Z,989.87
2018-12-09T09:19:22.682Z,989.84
2018-12-09T09:20:23.270Z,989.79
2018-12-09T09:21:23.878Z,989.92
2018-12-09T09:22:24.479Z,989.93
2018-12-09T09:23:25.078Z,989.91
2018-12-09T09:24:25.679Z,989.97
2018-12-09T09:25:26.278Z,990.01
2018-12-09T09:26:26.876Z,990.02
2018-12-09T09:27:27.472Z,990.04
2018-12-09T09:28:28.068Z,989.99
2018-12-09T09:29:28.670Z,989.95
2018-12-09T09:30:29.260Z,990.03
2018-12-09T09:31:29.856Z,989.91
2018-12-09T09:32:30.453Z,989.99
2018-12-09T09:33:31.053Z,990.04
2018-12-09T09:34:31.643Z,990.05
2018-12-09T09:35:32.248Z,989.99
2018-12-09T09:36:32.844Z,989.99
2018-12-09T09:37:33.447Z,990.03
2018-12-09T09:38:34.038Z,990.04
2018-12-09T09:39:34.648Z,990.01
2018-12-09T09:40:35.233Z,990.05
2018-12-09T09:41:35.828Z,990.01
2018-12-09T09:42:36.426Z,989.96
2018-12-09T09:43:37.019Z,990.04
2018-12-09T09:44:37.620Z,990.04
2018-12-09T09:45:38.222Z,989.99
2018-12-09T09:46:38.831Z,990.05
2018-12-09T09:47:39.428Z,990.05
2018-12-09T09:48:40.028Z,989.99
2018-12-09T09:49:40.631Z,990.00
2018-12-09T09:50:41.232Z,990.01
2018-12-09T09:51:41.832Z,990.04
2018-12-09T09:52:42.438Z,990.01
2018-12-09T09:53:43.050Z,989.94
2018-12-09T09:54:43.637Z,990.01
2018-12-09T09:55:44.237Z,990.03
2018-12-09T09:56:44.835Z,990.05
2018-12-09T09:57:45.428Z,990.09
2018-12-09T09:58:46.029Z,990.10
2018-12-09T09:59:46.631Z,990.11
2018-12-09T10:00:47.223Z,990.19
2018-12-09T10:01:47.824Z,990.22
2018-12-09T10:02:48.427Z,990.29
2018-12-09T10:03:49.022Z,990.35
2018-12-09T10:04:49.615Z,990.34
2018-12-09T10:05:50.205Z,990.42
2018-12-09T10:06:50.802Z,990.45
2018-12-09T10:07:51.402Z,990.40
2018-12-09T10:08:51.991Z,990.41
2018-12-09T10:09:52.582Z,990.45
2018-12-09T10:10:53.204Z,990.39
2018-12-09T10:11:53.788Z,990.35
2018-12-09T10:12:54.382Z,990.30
2018-12-09T10:13:54.981Z,990.38
2018-12-09T10:14:55.580Z,990.48
2018-12-09T10:15:56.185Z,990.52
2018-12-09T10:16:56.787Z,990.53
2018-12-09T10:17:57.383Z,990.66
2018-12-09T10:18:57.985Z,990.60
2018-12-09T10:19:58.586Z,990.62
2018-12-09T10:20:59.188Z,990.60
2018-12-09T10:21:59.786Z,990.63
2018-12-09T10:23:00.379Z,990.64
2018-12-09T10:24:00.965Z,990.70
2018-12-09T10:25:01.553Z,990.74
2018-12-09T10:26:02.146Z,990.66
2018-12-09T10:27:02.736Z,990.62
2018-12-09T10:28:03.332Z,990.55
2018-12-09T10:29:03.932Z,990.63
2018-12-09T10:30:04.528Z,990.45
2018-12-09T10:31:05.128Z,990.51
2018-12-09T10:32:05.727Z,990.40
2018-12-09T10:33:06.326Z,990.43
2018-12-09T10:34:06.915Z,990.43
2018-12-09T10:35:07.507Z,990.47
2018-12-09T10:36:08.106Z,990.43
2018-12-09T10:37:08.709Z,990.46
2018-12-09T10:38:09.306Z,990.35
2018-12-09T10:39:09.904Z,990.41
2018-12-09T10:40:10.501Z,990.24
2018-12-09T10:41:11.096Z,990.34
2018-12-09T10:42:11.693Z,990.47
2018-12-09T10:43:12.297Z,990.47
2018-12-09T10:44:12.899Z,990.56
2018-12-09T10:45:13.492Z,990.58
2018-12-09T10:46:14.096Z,990.62
2018-12-09T10:47:14.693Z,990.58
2018-12-09T10:48:15.285Z,990.72
2018-12-09T10:49:15.885Z,990.55
2018-12-09T10:50:16.480Z,990.66
2018-12-09T10:51:17.069Z,990.74
2018-12-09T10:52:17.674Z,990.82
2018-12-09T10:53:18.262Z,990.73
2018-12-09T10:54:18.885Z,990.84
2018-12-09T10:55:19.460Z,990.68
2018-12-09T10:56:20.061Z,990.67
2018-12-09T10:57:20.663Z,990.73
2018-12-09T10:58:21.286Z,990.75
2018-12-09T10:59:21.854Z,990.75
2018-12-09T11:00:22.455Z,990.69
2018-12-09T11:01:23.045Z,990.75
2018-12-09T11:02:23.647Z,990.71
2018-12-09T11:03:24.247Z,990.80
2018-12-09T11:04:24.849Z,990.80
2018-12-09T11:05:25.460Z,990.77
2018-12-09T11:06:26.049Z,990.86
2018-12-09T11:07:26.696Z,990.85
2018-12-09T11:08:27.238Z,990.81
2018-12-09T11:09:27.839Z,990.87
2018-12-09T11:10:28.429Z,990.81
2018-12-09T11:11:29.020Z,990.83
2018-12-09T11:12:29.613Z,990.82
2018-12-09T11:13:30.206Z,990.66
2018-12-09T11:14:30.796Z,990.73
2018-12-09T11:15:31.400Z,990.77
2018-12-09T11:16:31.999Z,990.76
2018-12-09T11:17:32.590Z,990.81
2018-12-09T11:18:33.183Z,990.76
2018-12-09T11:19:33.781Z,990.80
2018-12-09T11:20:34.380Z,990.83
2018-12-09T11:21:34.983Z,990.88
2018-12-09T11:22:35.570Z,990.81
2018-12-09T11:23:36.165Z,990.83
2018-12-09T11:24:36.763Z,990.89
2018-12-09T11:25:37.363Z,990.93
2018-12-09T11:26:37.966Z,990.88
2018-12-09T11:27:38.568Z,990.90
2018-12-09T11:28:39.167Z,990.78
2018-12-09T11:29:39.769Z,990.96
2018-12-09T11:30:40.360Z,991.00
2018-12-09T11:31:40.958Z,991.02
2018-12-09T11:32:41.556Z,990.96
2018-12-09T11:33:42.158Z,991.02
2018-12-09T11:34:42.756Z,991.06
2018-12-09T11:35:43.355Z,991.07
2018-12-09T11:36:43.949Z,991.07
2018-12-09T11:37:44.540Z,991.11
2018-12-09T11:38:45.132Z,991.09
2018-12-09T11:39:45.735Z,991.06
2018-12-09T11:40:46.336Z,991.15
2018-12-09T11:41:46.942Z,991.12
2018-12-09T11:42:47.532Z,991.17
2018-12-09T11:43:48.121Z,991.22
2018-12-09T11:44:48.715Z,991.21
2018-12-09T11:45:49.314Z,991.22
2018-12-09T11:46:49.919Z,991.26
2018-12-09T11:47:50.511Z,991.29
2018-12-09T11:48:51.108Z,991.25
2018-12-09T11:49:51.713Z,991.35
2018-12-09T11:50:52.315Z,991.29
2018-12-09T11:51:52.917Z,991.34
2018-12-09T11:52:53.506Z,991.33
2018-12-09T11:53:54.111Z,991.35
2018-12-09T11:54:54.713Z,991.38
2018-12-09T11:55:55.312Z,991.39
2018-12-09T11:56:55.910Z,991.33
2018-12-09T11:57:56.512Z,991.43
2018-12-09T11:58:57.113Z,991.40
2018-12-09T11:59:57.715Z,991.38
2018-12-09T12:00:58.336Z,991.35
2018-12-09T12:01:58.918Z,991.41
2018-12-09T12:02:59.523Z,991.36
2018-12-09T12:04:00.124Z,991.34
2018-12-09T12:05:00.719Z,991.37
2018-12-09T12:06:01.312Z,991.45
2018-12-09T12:07:01.916Z,991.25
2018-12-09T12:08:02.516Z,991.35
2018-12-09T12:09:03.111Z,991.39
2018-12-09T12:10:03.717Z,991.39
2018-12-09T12:11:04.318Z,991.43
2018-12-09T12:12:04.921Z,991.50
2018-12-09T12:13:05.525Z,991.54
2018-12-09T12:14:06.128Z,991.54
2018-12-09T12:15:06.732Z,991.51
2018-12-09T12:16:07.336Z,991.50
2018-12-09T12:17:07.935Z,991.53
2018-12-09T12:18:08.534Z,991.52
2018-12-09T12:19:09.135Z,991.47
2018-12-09T12:20:09.733Z,991.40
2018-12-09T12:21:10.334Z,991.51
2018-12-09T12:22:10.928Z,991.53
2018-12-09T12:23:11.535Z,991.57
2018-12-09T12:24:12.142Z,991.58
2018-12-09T12:25:12.738Z,991.54
2018-12-09T12:26:13.334Z,991.56
2018-12-09T12:27:13.938Z,991.51
2018-12-09T12:28:14.538Z,991.52
2018-12-09T12:29:15.142Z,991.54
2018-12-09T12:30:15.748Z,991.59
2018-12-09T12:31:16.351Z,991.57
2018-12-09T12:32:16.942Z,991.61
2018-12-09T12:33:17.542Z,991.61
2018-12-09T12:34:18.139Z,991.58
2018-12-09T12:35:18.748Z,991.61
2018-12-09T12:36:19.346Z,991.70